Time;durP1;ratioP1;P1;durP2;ratioP2;P2;SDS_P1;SDS_P2;PMS_P1;PMS_P2;Temp;Humidity;BMP_temperature;BMP_pressure;BME280_temperature;BME280_humidity;BME280_pressure;Samples;Min_cycle;Max_cycle;Signal;HPM_P1;HPM_P2
2021/12/13 00:01:03;;;;;;;14.50;10.73;;;;;;;6.45;79.76;99990.34;2619453;54;20410;-66
2021/12/13 00:03:36;;;;;;;16.42;10.07;;;;;;;6.47;79.80;99994.63;2619683;54;20062;-67
2021/12/13 00:06:11;;;;;;;15.07;10.77;;;;;;;6.47;79.48;99989.38;2621661;46;20648;-67
2021/12/13 00:08:46;;;;;;;14.77;10.63;;;;;;;6.37;79.86;99990.19;2622759;54;20026;-67
2021/12/13 00:11:20;;;;;;;17.00;11.63;;;;;;;6.38;80.03;99988.41;2621805;54;20034;-66
2021/12/13 00:13:54;;;;;;;19.38;11.65;;;;;;;6.38;79.60;99999.72;2622124;54;20029;-68
2021/12/13 00:16:27;;;;;;;15.73;10.82;;;;;;;6.44;80.05;99993.09;2622481;54;20027;-66
2021/12/13 00:19:00;;;;;;;16.55;10.27;;;;;;;6.43;80.07;99987.00;2622334;54;20034;-66
2021/12/13 00:21:36;;;;;;;13.93;9.98;;;;;;;6.42;79.78;99985.34;2622407;54;20090;-66
2021/12/13 00:24:14;;;;;;;15.60;10.18;;;;;;;6.43;79.80;99984.38;2622072;54;20026;-65
2021/12/13 00:26:48;;;;;;;19.95;12.45;;;;;;;6.42;79.73;99995.84;2621959;54;20030;-67
2021/12/13 00:29:19;;;;;;;;;;;;;;;6.38;79.68;99994.47;2618537;47;20080;-67
2021/12/13 00:31:53;;;;;;;17.58;11.27;;;;;;;6.39;79.79;99998.75;2618266;54;19973;-67
2021/12/13 00:34:33;;;;;;;16.45;10.95;;;;;;;6.44;79.81;99995.72;2618160;54;20588;-66
2021/12/13 00:37:10;;;;;;;17.70;11.02;;;;;;;6.46;79.95;99988.53;2618366;39;20411;-65
2021/12/13 00:39:50;;;;;;;16.48;11.18;;;;;;;6.45;79.65;99986.88;2618592;54;20022;-66
2021/12/13 00:42:21;;;;;;;16.92;11.07;;;;;;;6.42;79.90;99987.97;2618534;54;20034;-66
2021/12/13 00:44:54;;;;;;;20.08;11.18;;;;;;;6.39;79.75;99983.00;2618038;54;20061;-66
2021/12/13 00:47:27;;;;;;;19.70;11.15;;;;;;;6.36;79.71;99988.50;2618194;54;20038;-66
2021/12/13 00:50:03;;;;;;;17.70;11.63;;;;;;;6.33;80.08;99991.44;2618594;39;20614;-66
2021/12/13 00:52:34;;;;;;;16.80;11.57;;;;;;;6.33;79.94;99985.34;2617789;54;20029;-66
2021/12/13 00:55:12;;;;;;;15.77;10.77;;;;;;;6.34;80.02;99984.38;2618118;54;20034;-66
2021/12/13 00:57:45;;;;;;;19.88;11.82;;;;;;;6.32;79.96;99984.50;2618116;54;20038;-66
2021/12/13 01:00:26;;;;;;;19.00;11.20;;;;;;;6.33;79.96;99980.94;2617946;54;20027;-66
2021/12/13 01:02:59;;;;;;;19.30;11.57;;;;;;;6.33;80.47;99982.72;2617906;54;20099;-66
2021/12/13 01:05:49;;;;;;;21.08;12.07;;;;;;;6.33;80.48;99986.19;2617917;54;20596;-66
2021/12/13 01:08:44;;;;;;;21.75;13.48;;;;;;;6.30;80.12;99981.19;2617548;47;20030;-68
2021/12/13 01:11:41;;;;;;;21.65;11.68;;;;;;;6.28;80.29;99987.53;2617956;54;20038;-67
2021/12/13 01:14:39;;;;;;;18.45;11.65;;;;;;;6.24;80.55;99992.22;2618243;54;20030;-67
2021/12/13 01:17:19;;;;;;;18.73;11.68;;;;;;;6.22;80.53;100001.22;2618199;54;20038;-67
2021/12/13 01:19:57;;;;;;;17.40;11.07;;;;;;;6.26;80.77;100006.06;2617954;39;20418;-67
2021/12/13 01:22:42;;;;;;;17.77;10.85;;;;;;;6.30;80.53;100009.25;2617130;47;20037;-67
2021/12/13 01:25:21;;;;;;;19.65;11.88;;;;;;;6.26;80.70;100013.13;2618038;54;20042;-67
2021/12/13 01:28:03;;;;;;;15.45;10.82;;;;;;;6.27;80.55;100014.78;2618957;54;20034;-68
2021/12/13 01:30:37;;;;;;;16.08;10.50;;;;;;;6.24;80.70;100018.47;2619919;54;20037;-68
2021/12/13 01:33:09;;;;;;;15.88;11.13;;;;;;;6.29;80.77;100016.31;2618693;39;20417;-67
2021/12/13 01:35:42;;;;;;;15.32;11.20;;;;;;;6.33;80.54;100017.69;2619116;54;20030;-67
2021/12/13 01:38:16;;;;;;;16.98;11.23;;;;;;;6.39;80.77;100017.13;2618974;54;20026;-67
2021/12/13 01:40:51;;;;;;;17.25;11.85;;;;;;;6.48;80.84;100018.13;2618992;54;20050;-66
2021/12/13 01:43:26;;;;;;;16.48;11.05;;;;;;;6.46;80.26;100014.81;2618978;54;20034;-67
2021/12/13 01:45:59;;;;;;;17.25;11.85;;;;;;;6.47;80.54;100018.25;2618905;54;20030;-66
2021/12/13 01:48:34;;;;;;;18.10;11.50;;;;;;;6.52;80.84;100021.31;2618682;39;20448;-67
2021/12/13 01:51:10;;;;;;;16.67;11.05;;;;;;;6.57;80.72;100029.59;2618792;54;20298;-67
2021/12/13 01:53:44;;;;;;;16.85;10.90;;;;;;;6.59;80.27;100035.56;2619025;54;20023;-67
2021/12/13 01:59:15;;;;;;;16.73;10.55;;;;;;;6.62;80.14;100024.78;2618991;54;20027;-67
2021/12/13 02:01:47;;;;;;;16.50;10.73;;;;;;;6.62;80.41;100030.88;2618712;54;20050;-66
2021/12/13 02:04:17;;;;;;;17.45;10.55;;;;;;;6.68;80.38;100032.09;2618335;47;20014;-66
2021/12/13 02:06:51;;;;;;;15.80;11.45;;;;;;;6.70;79.77;100035.44;2619840;54;20019;-67
2021/12/13 02:09:26;;;;;;;17.00;10.27;;;;;;;6.69;79.63;100037.25;2619802;54;20030;-67
2021/12/13 02:12:00;;;;;;;16.17;10.60;;;;;;;6.66;80.05;100034.06;2620907;54;20034;-67
2021/12/13 02:14:35;;;;;;;17.85;11.77;;;;;;;6.67;80.17;100030.44;2619358;39;20446;-67
2021/12/13 02:17:10;;;;;;;18.70;12.60;;;;;;;6.63;79.97;100029.06;2618126;47;20026;-67
2021/12/13 02:19:50;;;;;;;16.35;11.40;;;;;;;6.64;79.88;100030.72;2619022;54;20094;-67
2021/12/13 02:22:44;;;;;;;19.58;13.48;;;;;;;6.66;80.25;100028.78;2618844;54;20030;-67
2021/12/13 02:25:25;;;;;;;18.48;12.52;;;;;;;6.56;79.83;100026.13;2619005;54;20038;-67
2021/12/13 02:27:59;;;;;;;17.58;12.15;;;;;;;6.56;80.29;100023.50;2619428;39;20398;-68
2021/12/13 02:30:36;;;;;;;17.52;12.48;;;;;;;6.63;80.13;100026.44;2618785;54;20039;-68
2021/12/13 02:33:08;;;;;;;17.08;11.93;;;;;;;6.66;80.04;100032.25;2618931;54;20034;-66
2021/12/13 02:35:40;;;;;;;17.25;11.80;;;;;;;6.58;79.92;100033.91;2618799;54;20030;-67
2021/12/13 02:38:15;;;;;;;17.65;11.32;;;;;;;6.58;80.07;100028.66;2619005;54;20034;-66
2021/12/13 02:40:46;;;;;;;16.08;11.57;;;;;;;6.60;80.42;100027.53;2618136;54;20038;-66
2021/12/13 02:43:19;;;;;;;16.40;11.55;;;;;;;6.67;79.95;100030.44;2618422;54;20034;-66
2021/12/13 02:45:53;;;;;;;15.63;11.50;;;;;;;6.70;80.28;100024.94;2618960;54;20042;-66
2021/12/13 02:48:31;;;;;;;16.88;11.70;;;;;;;6.78;79.57;100025.06;2618636;54;20038;-66
2021/12/13 02:51:07;;;;;;;15.35;10.43;;;;;;;6.77;79.65;100025.19;2618406;39;20419;-66
2021/12/13 02:53:43;;;;;;;18.92;12.43;;;;;;;6.73;79.38;100024.63;2618874;54;20042;-66
2021/12/13 02:56:14;;;;;;;17.55;11.23;;;;;;;6.67;79.92;100019.94;2617997;54;20035;-66
2021/12/13 02:58:45;;;;;;;18.13;12.05;;;;;;;6.73;79.72;100013.28;2618108;54;20029;-66
2021/12/13 03:01:20;;;;;;;16.85;11.93;;;;;;;6.79;79.47;100018.84;2618512;54;20051;-66
2021/12/13 03:03:53;;;;;;;15.20;10.75;;;;;;;6.82;79.50;100013.31;2618077;46;20030;-66
2021/12/13 03:06:26;;;;;;;16.75;10.85;;;;;;;6.80;79.27;100014.41;2618693;54;20023;-66
2021/12/13 03:09:02;;;;;;;15.65;11.20;;;;;;;6.77;79.90;100012.88;2618911;54;20065;-66
2021/12/13 03:11:34;;;;;;;15.82;10.73;;;;;;;6.78;79.56;100011.09;2618470;54;20038;-66
2021/12/13 03:14:08;;;;;;;14.00;9.48;;;;;;;6.81;79.33;100014.25;2618520;54;20041;-66
2021/12/13 03:16:47;;;;;;;13.45;9.90;;;;;;;6.84;79.33;100018.41;2618840;54;20045;-66
2021/12/13 03:19:29;;;;;;;14.70;9.80;;;;;;;6.87;79.08;100016.34;2619948;54;20031;-65
2021/12/13 03:22:19;;;;;;;14.32;10.40;;;;;;;6.84;79.34;100013.16;2618360;47;20125;-66
2021/12/13 03:25:15;;;;;;;14.27;10.40;;;;;;;6.80;79.51;100011.78;2618509;54;20558;-66
2021/12/13 03:27:58;;;;;;;13.38;9.85;;;;;;;6.77;79.03;100005.00;2618519;54;20034;-66
2021/12/13 03:30:31;;;;;;;14.25;10.32;;;;;;;6.72;79.65;100017.72;2620002;39;20430;-66
2021/12/13 03:33:04;;;;;;;15.88;10.52;;;;;;;6.64;79.17;100009.69;2624457;54;20029;-66
2021/12/13 03:35:38;;;;;;;15.37;10.93;;;;;;;6.66;79.58;100024.38;2626004;54;20038;-66
2021/12/13 03:38:12;;;;;;;15.98;10.57;;;;;;;6.55;79.44;100013.97;2626662;54;20036;-66
2021/12/13 03:40:45;;;;;;;16.00;11.00;;;;;;;6.56;79.92;100009.56;2627092;54;20058;-67
2021/12/13 03:43:19;;;;;;;16.83;10.98;;;;;;;6.57;79.57;100014.69;2625771;54;20039;-67
2021/12/13 03:45:52;;;;;;;17.35;12.20;;;;;;;6.51;79.85;100006.50;2626684;54;20042;-67
2021/12/13 03:48:24;;;;;;;18.35;11.75;;;;;;;6.45;80.14;100008.72;2626284;54;20053;-67
2021/12/13 03:50:57;;;;;;;19.10;12.63;;;;;;;6.43;80.34;100010.66;2623492;54;20030;-66
2021/12/13 03:53:31;;;;;;;21.80;14.25;;;;;;;6.43;80.39;100007.19;2623613;54;20042;-66
2021/12/13 03:56:09;;;;;;;18.23;12.63;;;;;;;6.34;80.23;100002.75;2625151;54;20035;-66
2021/12/13 03:58:44;;;;;;;24.45;14.75;;;;;;;6.36;80.49;100009.53;2622789;54;20559;-66
2021/12/13 04:01:18;;;;;;;23.25;13.57;;;;;;;6.32;80.88;100009.94;2624152;54;20030;-66
2021/12/13 04:03:52;;;;;;;22.30;14.43;;;;;;;6.31;80.70;100001.22;2622935;54;20029;-65
2021/12/13 04:06:23;;;;;;;22.25;14.40;;;;;;;6.39;80.50;100003.19;2624264;54;20022;-66
2021/12/13 04:08:56;;;;;;;18.55;12.75;;;;;;;6.47;80.44;100003.31;2626727;54;20034;-66
2021/12/13 04:11:31;;;;;;;22.10;13.40;;;;;;;6.50;80.26;100002.22;2624526;54;20037;-66
2021/12/13 04:14:09;;;;;;;23.38;14.05;;;;;;;6.51;80.16;100006.50;2624892;54;20542;-65
2021/12/13 04:17:01;;;;;;;24.00;13.80;;;;;;;6.52;80.16;100009.00;2625562;51;20022;-66
2021/12/13 04:19:42;;;;;;;21.60;13.07;;;;;;;6.44;80.23;100003.59;2625685;54;20026;-66
2021/12/13 04:22:13;;;;;;;20.05;12.68;;;;;;;6.42;79.96;100011.63;2626268;54;20034;-67
2021/12/13 04:24:46;;;;;;;19.23;12.15;;;;;;;6.41;80.09;100015.22;2626551;54;20018;-66
2021/12/13 04:27:27;;;;;;;18.23;11.60;;;;;;;6.39;80.42;100005.81;2625469;54;20082;-66
2021/12/13 04:30:01;;;;;;;18.40;12.27;;;;;;;6.35;80.32;100007.03;2621873;54;20038;-65
2021/12/13 04:32:34;;;;;;;18.10;11.57;;;;;;;6.30;80.55;100014.50;2619862;54;20049;-66
2021/12/13 04:35:10;;;;;;;20.42;12.57;;;;;;;6.28;80.54;100017.25;2618744;54;20046;-66
2021/12/13 04:37:44;;;;;;;18.85;12.40;;;;;;;6.24;80.81;100018.47;2619800;54;20561;-66
2021/12/13 04:40:17;;;;;;;19.27;12.10;;;;;;;6.30;80.45;100017.13;2620237;54;20030;-66
2021/12/13 04:42:52;;;;;;;18.77;12.30;;;;;;;6.32;80.45;100016.00;2618779;54;20026;-66
2021/12/13 04:45:26;;;;;;;21.48;13.20;;;;;;;6.31;80.90;100021.41;2618098;54;20031;-65
2021/12/13 04:47:59;;;;;;;18.95;12.52;;;;;;;6.37;80.86;100023.50;2618009;54;20037;-67
2021/12/13 04:50:35;;;;;;;20.65;11.60;;;;;;;6.38;80.55;100014.66;2618330;54;20035;-66
2021/12/13 04:53:06;;;;;;;16.52;11.23;;;;;;;6.40;80.81;100018.78;2617626;54;20068;-66
2021/12/13 04:55:42;;;;;;;14.00;9.57;;;;;;;6.40;80.76;100017.97;2618634;54;20026;-66
2021/12/13 04:58:16;;;;;;;11.25;7.63;;;;;;;6.38;80.15;100027.78;2618496;54;20117;-66
2021/12/13 05:00:50;;;;;;;11.07;8.25;;;;;;;6.40;80.19;100028.47;2618495;54;20033;-66
2021/12/13 05:03:24;;;;;;;12.95;8.77;;;;;;;6.39;80.49;100026.81;2618685;54;20026;-66
2021/12/13 05:05:53;;;;;;;12.30;8.35;;;;;;;6.39;80.23;100027.66;2619579;54;20027;-66
2021/12/13 05:08:24;;;;;;;13.55;8.45;;;;;;;6.44;80.42;100024.59;2618996;47;20037;-66
2021/12/13 05:10:54;;;;;;;9.75;7.18;;;;;;;6.45;80.45;100021.88;2619105;47;20038;-66
2021/12/13 05:13:29;;;;;;;10.32;7.55;;;;;;;6.46;80.26;100025.31;2619249;54;20026;-67
2021/12/13 05:16:07;;;;;;;10.52;7.45;;;;;;;6.40;80.03;100031.94;2619730;54;20542;-67
2021/12/13 05:18:43;;;;;;;10.10;7.50;;;;;;;6.43;80.26;100036.09;2619516;54;20038;-68
2021/12/13 05:21:18;;;;;;;10.32;7.40;;;;;;;6.49;80.35;100030.31;2619429;39;20535;-67
2021/12/13 05:23:51;;;;;;;9.65;6.50;;;;;;;6.47;80.08;100039.28;2621763;54;20031;-65
2021/12/13 05:26:32;;;;;;;11.13;7.40;;;;;;;6.51;79.79;100030.16;2621427;54;20042;-66
2021/12/13 05:29:07;;;;;;;9.68;7.28;;;;;;;6.41;80.00;100030.16;2621541;47;20038;-66
2021/12/13 05:31:37;;;;;;;10.98;7.60;;;;;;;6.40;79.79;100037.19;2621929;54;20026;-66
2021/12/13 05:34:09;;;;;;;8.75;6.32;;;;;;;6.41;79.56;100040.66;2622589;54;20026;-65
2021/12/13 05:36:39;;;;;;;11.63;7.20;;;;;;;6.42;79.85;100048.41;2622093;54;20023;-65
2021/12/13 05:39:13;;;;;;;9.52;6.82;;;;;;;6.41;80.04;100046.75;2623126;39;20414;-66
2021/12/13 05:41:54;;;;;;;11.85;7.22;;;;;;;6.43;79.67;100055.31;2622072;54;20034;-65
2021/12/13 05:44:31;;;;;;;9.70;6.20;;;;;;;6.45;79.59;100048.13;2621176;54;20074;-65
2021/12/13 05:47:05;;;;;;;9.65;6.00;;;;;;;6.44;79.47;100053.50;2618964;54;20037;-65
2021/12/13 05:49:37;;;;;;;10.73;6.68;;;;;;;6.44;79.63;100048.25;2619305;39;20454;-65
2021/12/13 05:52:11;;;;;;;7.95;5.68;;;;;;;6.45;79.64;100055.19;2617892;54;20042;-66
2021/12/13 05:54:44;;;;;;;7.90;5.80;;;;;;;6.48;79.56;100061.94;2619246;39;20466;-66
2021/12/13 05:57:19;;;;;;;6.70;5.50;;;;;;;6.48;79.70;100056.69;2618096;47;20038;-66
2021/12/13 06:00:02;;;;;;;8.25;5.57;;;;;;;6.34;79.53;100061.38;2618754;54;20283;-66
2021/12/13 06:03:02;;;;;;;8.07;5.88;;;;;;;6.43;79.33;100060.56;2618644;54;20081;-65
2021/12/13 06:05:35;;;;;;;7.78;5.30;;;;;;;6.40;79.15;100062.63;2618012;47;20045;-66
2021/12/13 06:08:10;;;;;;;7.28;6.00;;;;;;;6.39;79.59;100066.22;2617971;54;20031;-66
2021/12/13 06:10:49;;;;;;;6.35;5.20;;;;;;;6.43;79.46;100067.59;2618679;54;20078;-67
2021/12/13 06:13:36;;;;;;;7.75;5.47;;;;;;;6.43;79.55;100062.34;2618010;54;20038;-66
2021/12/13 06:16:08;;;;;;;7.32;5.57;;;;;;;6.39;79.55;100059.16;2618742;54;20046;-67
2021/12/13 06:18:43;;;;;;;7.68;5.53;;;;;;;6.37;79.63;100070.78;2618562;54;20042;-65
2021/12/13 06:21:26;;;;;;;6.35;4.68;;;;;;;6.34;79.39;100065.78;2618400;54;20035;-66
2021/12/13 06:23:56;;;;;;;5.28;4.70;;;;;;;6.31;79.35;100066.88;2619188;39;20470;-66
2021/12/13 06:26:30;;;;;;;5.53;4.47;;;;;;;6.37;79.28;100076.88;2618876;54;20050;-66
2021/12/13 06:29:03;;;;;;;5.47;4.28;;;;;;;6.37;78.92;100076.03;2618768;54;20031;-66
2021/12/13 06:31:42;;;;;;;6.30;4.53;;;;;;;6.34;79.28;100082.38;2618649;54;20577;-66
2021/12/13 06:34:14;;;;;;;6.15;4.85;;;;;;;6.36;79.34;100080.44;2618234;47;20033;-67
2021/12/13 06:36:47;;;;;;;6.85;4.65;;;;;;;6.36;79.13;100082.22;2618723;54;20058;-66
2021/12/13 06:39:19;;;;;;;6.57;4.60;;;;;;;6.36;78.96;100085.69;2618903;54;20139;-66
2021/12/13 06:41:50;;;;;;;5.15;4.38;;;;;;;6.39;79.06;100087.22;2618775;54;20026;-65
2021/12/13 06:44:24;;;;;;;4.95;4.15;;;;;;;6.38;78.99;100093.44;2619065;54;20043;-66
2021/12/13 06:47:03;;;;;;;5.25;3.80;;;;;;;6.40;78.79;100084.47;2619719;39;20447;-66
2021/12/13 06:49:37;;;;;;;4.07;3.67;;;;;;;6.42;78.84;100086.97;2618850;54;20060;-66
2021/12/13 06:52:08;;;;;;;;;;;;;;;6.39;78.94;100082.81;2618861;54;20592;-66
2021/12/13 06:54:41;;;;;;;4.78;4.15;;;;;;;6.41;78.77;100077.44;2618472;47;20438;-66
2021/12/13 06:57:17;;;;;;;3.83;3.42;;;;;;;6.47;78.73;100079.50;2618969;54;20050;-66
2021/12/13 06:59:51;;;;;;;5.80;4.63;;;;;;;6.45;78.21;100084.91;2619478;39;20423;-66
2021/12/13 07:02:26;;;;;;;6.07;4.28;;;;;;;6.44;78.79;100083.22;2618944;54;20027;-66
2021/12/13 07:05:02;;;;;;;4.30;3.78;;;;;;;6.51;78.57;100086.16;2618696;39;20561;-66
2021/12/13 07:07:36;;;;;;;5.28;4.78;;;;;;;6.59;78.40;100090.72;2618882;54;20065;-66
2021/12/13 07:10:15;;;;;;;4.10;3.35;;;;;;;6.58;77.93;100096.97;2618660;54;20027;-66
2021/12/13 07:12:51;;;;;;;7.53;5.38;;;;;;;6.59;78.27;100090.72;2619467;39;20438;-65
2021/12/13 07:15:31;;;;;;;6.18;5.45;;;;;;;6.60;78.16;100093.22;2618782;54;20624;-67
2021/12/13 07:18:13;;;;;;;7.20;5.07;;;;;;;6.61;77.81;100088.78;2618872;54;20034;-65
2021/12/13 07:20:46;;;;;;;6.80;5.00;;;;;;;6.63;78.00;100089.50;2618822;54;20078;-65
2021/12/13 07:23:17;;;;;;;7.05;4.32;;;;;;;6.63;78.14;100087.69;2618459;54;20037;-65
2021/12/13 07:25:51;;;;;;;4.43;4.03;;;;;;;6.63;78.05;100090.31;2619211;54;20038;-67
2021/12/13 07:28:36;;;;;;;4.97;4.45;;;;;;;6.65;77.75;100096.28;2618512;54;20059;-67
2021/12/13 07:31:08;;;;;;;4.78;3.97;;;;;;;6.61;77.58;100099.28;2617673;54;20041;-65
2021/12/13 07:33:44;;;;;;;6.72;4.47;;;;;;;6.65;78.12;100100.69;2618642;54;20077;-65
2021/12/13 07:36:21;;;;;;;4.18;3.67;;;;;;;6.68;77.88;100108.31;2619202;54;20099;-66
2021/12/13 07:38:56;;;;;;;5.78;4.78;;;;;;;6.64;77.45;100104.28;2620867;54;20035;-66
2021/12/13 07:41:30;;;;;;;6.40;4.22;;;;;;;6.57;77.09;100100.53;2620455;54;20066;-66
2021/12/13 07:44:00;;;;;;;4.78;4.20;;;;;;;6.56;77.33;100107.59;2621014;54;20027;-66
2021/12/13 07:46:34;;;;;;;4.72;3.95;;;;;;;6.53;77.31;100113.13;2619569;54;20026;-66
2021/12/13 07:49:08;;;;;;;;;;;;;;;6.48;77.27;100114.47;2620818;39;20406;-65
2021/12/13 07:51:41;;;;;;;5.65;3.50;;;;;;;6.50;77.35;100115.19;2620175;54;19982;-66
2021/12/13 07:54:13;;;;;;;5.65;4.93;;;;;;;6.51;77.70;100111.59;2620231;54;20057;-65
2021/12/13 07:56:50;;;;;;;7.20;5.72;;;;;;;6.52;77.61;100113.25;2620636;54;20042;-65
2021/12/13 07:59:27;;;;;;;5.75;4.75;;;;;;;6.44;77.00;100111.28;2620042;54;20027;-66
2021/12/13 08:02:02;;;;;;;5.80;4.50;;;;;;;6.36;77.41;100119.84;2619830;39;20429;-66
2021/12/13 08:04:46;;;;;;;4.47;4.07;;;;;;;6.43;77.79;100115.72;2620212;39;20410;-66
2021/12/13 08:07:18;;;;;;;4.95;3.90;;;;;;;6.48;77.82;100119.75;2618848;39;20446;-66
2021/12/13 08:09:52;;;;;;;4.80;3.80;;;;;;;6.51;77.39;100114.22;2619063;39;20436;-66
2021/12/13 08:12:23;;;;;;;;;;;;;;;6.48;77.72;100114.47;2619028;54;20075;-66
2021/12/13 08:14:56;;;;;;;5.05;4.00;;;;;;;6.45;77.69;100119.06;2619172;54;19990;-66
2021/12/13 08:17:31;;;;;;;4.85;3.95;;;;;;;6.45;77.66;100120.84;2619178;54;20037;-66
2021/12/13 08:20:07;;;;;;;5.78;4.38;;;;;;;6.49;77.24;100130.13;2619596;54;20035;-67
2021/12/13 08:22:37;;;;;;;6.53;4.78;;;;;;;6.53;77.32;100123.66;2619510;39;20437;-66
2021/12/13 08:25:12;;;;;;;6.47;4.78;;;;;;;6.56;77.42;100123.34;2619692;54;20030;-66
2021/12/13 08:27:45;;;;;;;6.15;4.15;;;;;;;6.58;77.30;100123.25;2619409;47;20041;-66
2021/12/13 08:30:21;;;;;;;5.57;4.25;;;;;;;6.63;77.35;100121.84;2619118;54;20610;-67
2021/12/13 08:33:01;;;;;;;6.10;4.65;;;;;;;6.65;77.36;100125.19;2620707;54;20026;-64
2021/12/13 08:35:48;;;;;;;7.13;5.13;;;;;;;6.68;77.27;100113.56;2622721;39;20109;-66
2021/12/13 08:38:29;;;;;;;6.00;4.70;;;;;;;6.75;77.11;100121.75;2620255;54;20043;-66
2021/12/13 08:41:01;;;;;;;5.78;4.43;;;;;;;6.83;77.08;100119.28;2619156;54;20038;-66
2021/12/13 08:43:36;;;;;;;6.30;4.72;;;;;;;6.85;76.76;100120.78;2619133;54;20042;-65
2021/12/13 08:46:07;;;;;;;5.15;4.10;;;;;;;6.89;76.64;100116.06;2618911;54;20534;-67
2021/12/13 08:48:47;;;;;;;8.07;4.22;;;;;;;6.92;76.89;100118.44;2618252;54;20212;-66
2021/12/13 08:51:25;;;;;;;5.10;4.07;;;;;;;6.99;76.91;100121.38;2617988;54;20035;-66
2021/12/13 08:54:06;;;;;;;5.30;4.30;;;;;;;6.99;76.32;100119.56;2618396;54;20041;-66
2021/12/13 08:56:45;;;;;;;5.82;4.70;;;;;;;6.93;76.11;100120.09;2618296;54;20027;-67
2021/12/13 08:59:23;;;;;;;5.75;4.32;;;;;;;6.86;76.38;100129.53;2618042;54;20034;-67
2021/12/13 09:01:56;;;;;;;5.68;4.80;;;;;;;6.93;76.45;100126.19;2617894;54;20041;-66
2021/12/13 09:04:28;;;;;;;5.15;4.50;;;;;;;7.04;76.73;100127.03;2618498;39;20473;-67
2021/12/13 09:07:04;;;;;;;5.68;4.28;;;;;;;7.14;76.04;100117.34;2617476;54;20018;-67
2021/12/13 09:09:34;;;;;;;6.45;4.63;;;;;;;7.19;75.88;100121.22;2618017;54;20033;-67
2021/12/13 09:12:08;;;;;;;4.75;4.10;;;;;;;7.23;75.72;100128.84;2618376;39;20418;-66
2021/12/13 09:14:42;;;;;;;6.20;4.95;;;;;;;7.22;75.76;100120.09;2618232;54;20031;-67
2021/12/13 09:17:21;;;;;;;7.95;5.10;;;;;;;7.31;75.88;100123.72;2618064;54;20027;-66
2021/12/13 09:19:58;;;;;;;5.57;4.72;;;;;;;7.33;75.34;100127.03;2618237;54;20027;-67
2021/12/13 09:22:33;;;;;;;6.07;4.85;;;;;;;7.42;75.37;100126.19;2617353;54;20046;-65
2021/12/13 09:25:08;;;;;;;6.05;5.00;;;;;;;7.44;75.36;100130.34;2619178;31;20515;-66
2021/12/13 09:27:46;;;;;;;5.25;4.45;;;;;;;7.50;75.05;100128.13;2618312;54;20045;-66
2021/12/13 09:30:23;;;;;;;7.78;5.18;;;;;;;7.56;75.27;100135.47;2618062;54;20042;-66
2021/12/13 09:32:56;;;;;;;5.13;4.18;;;;;;;7.60;74.79;100137.69;2617572;54;20027;-66
2021/12/13 09:35:38;;;;;;;4.85;4.32;;;;;;;7.64;75.02;100141.69;2618009;54;20034;-66
2021/12/13 09:38:29;;;;;;;6.32;5.00;;;;;;;7.63;74.40;100144.44;2618041;54;20045;-66
2021/12/13 09:41:07;;;;;;;7.15;4.90;;;;;;;7.60;74.78;100142.94;2618057;46;20046;-66
2021/12/13 09:43:49;;;;;;;5.93;4.70;;;;;;;7.60;74.62;100136.84;2618128;54;20022;-66
2021/12/13 09:46:23;;;;;;;8.20;7.30;;;;;;;7.67;74.96;100146.69;2617400;47;20027;-65
2021/12/13 09:48:57;;;;;;;7.75;6.47;;;;;;;7.75;74.62;100132.78;2617955;54;20064;-66
2021/12/13 09:51:32;;;;;;;9.18;7.68;;;;;;;7.82;74.80;100139.16;2618273;54;20608;-66
2021/12/13 09:54:08;;;;;;;12.25;7.65;;;;;;;7.80;74.22;100145.56;2618860;54;20030;-65
2021/12/13 09:56:49;;;;;;;15.48;7.82;;;;;;;7.81;74.55;100132.22;2619132;54;20026;-65
2021/12/13 09:59:24;;;;;;;15.27;10.95;;;;;;;7.86;74.18;100131.81;2618943;54;20053;-66
2021/12/13 10:01:56;;;;;;;22.50;15.18;;;;;;;7.98;74.37;100128.03;2618696;54;20550;-67
2021/12/13 10:04:31;;;;;;;8.65;6.53;;;;;;;8.04;73.62;100134.50;2618305;47;20031;-65
2021/12/13 10:07:02;;;;;;;;;;;;;;;7.98;73.22;100135.09;2618928;54;20042;-65
2021/12/13 10:09:37;;;;;;;8.15;4.85;;;;;;;7.88;73.90;100133.34;2618841;54;19946;-65
2021/12/13 10:12:13;;;;;;;5.83;4.57;;;;;;;7.90;74.36;100126.09;2432720;36;5002904;-65
2021/12/13 10:28:11;;;;;;;4.47;4.07;;;;;;;8.49;72.08;100118.00;399303;54;896193;-65
2021/12/13 10:30:46;;;;;;;5.80;5.18;;;;;;;8.47;72.04;100122.59;2621776;46;20065;-65
2021/12/13 10:33:18;;;;;;;4.57;3.80;;;;;;;8.43;72.01;100122.06;2622613;54;20057;-65
2021/12/13 10:35:49;;;;;;;5.40;4.90;;;;;;;8.35;71.63;100119.28;2622869;54;20022;-66
2021/12/13 10:38:24;;;;;;;8.43;5.78;;;;;;;8.39;71.73;100118.06;2623327;31;20538;-65
2021/12/13 10:40:58;;;;;;;10.38;6.00;;;;;;;8.44;72.26;100121.06;2621251;54;20027;-66
2021/12/13 10:43:35;;;;;;;11.88;7.10;;;;;;;8.49;71.93;100116.22;2621591;54;20030;-66
2021/12/13 10:46:11;;;;;;;8.38;5.55;;;;;;;8.49;71.58;100116.22;2622068;54;20142;-66
2021/12/13 10:48:45;;;;;;;13.00;6.88;;;;;;;8.43;71.63;100114.16;2621495;54;20030;-66
2021/12/13 10:51:19;;;;;;;13.00;7.60;;;;;;;8.40;71.97;100119.69;2621779;54;20026;-66
2021/12/13 10:53:53;;;;;;;27.40;8.63;;;;;;;8.42;72.02;100115.94;2621592;54;20038;-66
2021/12/13 10:56:26;;;;;;;16.08;7.75;;;;;;;8.45;71.87;100112.22;2622691;38;20407;-66
2021/12/13 10:59:02;;;;;;;8.77;5.88;;;;;;;8.38;71.76;100109.31;2622161;54;20042;-66
2021/12/13 11:01:37;;;;;;;35.17;12.32;;;;;;;8.30;72.10;100116.25;2621392;46;20022;-67
2021/12/13 11:04:11;;;;;;;13.48;6.15;;;;;;;8.31;72.54;100107.38;2621939;54;20034;-66
2021/12/13 11:06:43;;;;;;;15.60;7.15;;;;;;;8.32;72.43;100104.59;2623142;54;20549;-67
2021/12/13 11:09:19;;;;;;;8.57;5.80;;;;;;;8.48;72.38;100109.25;2623208;54;20068;-67
2021/12/13 11:11:54;;;;;;;12.95;5.22;;;;;;;8.37;72.29;100105.03;2621153;54;20022;-67
2021/12/13 11:14:29;;;;;;;5.25;4.68;;;;;;;8.36;72.20;100099.84;2622316;38;20414;-67
2021/12/13 11:17:02;;;;;;;5.63;4.07;;;;;;;8.39;72.32;100097.78;2621779;54;20022;-67
2021/12/13 11:19:35;;;;;;;30.25;10.20;;;;;;;8.47;72.73;100089.16;2621291;46;20064;-67
2021/12/13 11:22:11;;;;;;;17.83;5.95;;;;;;;8.48;72.43;100096.06;2621121;54;20031;-67
2021/12/13 11:24:46;;;;;;;9.15;5.65;;;;;;;8.59;72.32;100084.50;2620974;54;20027;-67
2021/12/13 11:27:19;;;;;;;5.78;4.05;;;;;;;8.69;72.28;100082.63;2618266;54;20569;-67
2021/12/13 11:29:53;;;;;;;5.38;3.20;;;;;;;8.76;72.39;100081.06;2618370;54;20027;-67
2021/12/13 11:32:56;;;;;;;4.38;3.35;;;;;;;8.81;71.52;100081.44;2618062;54;20794;-67
2021/12/13 11:35:56;;;;;;;4.25;3.85;;;;;;;8.83;72.00;100073.38;2618165;54;20045;-66
2021/12/13 11:39:05;;;;;;;4.90;4.15;;;;;;;8.80;71.21;100077.16;2618130;54;20570;-67
2021/12/13 11:41:50;;;;;;;7.70;4.80;;;;;;;8.72;71.83;100071.78;2618478;39;20426;-68
2021/12/13 11:44:40;;;;;;;4.82;4.03;;;;;;;8.82;72.14;100069.94;2621944;54;20525;-66
2021/12/13 11:47:39;;;;;;;4.95;3.78;;;;;;;8.92;71.96;100065.41;2622100;54;20038;-66
2021/12/13 11:51:00;;;;;;;4.35;3.90;;;;;;;8.99;71.59;100070.91;2618535;47;20027;-67
2021/12/13 11:53:53;;;;;;;4.95;4.43;;;;;;;9.01;71.14;100074.19;2617301;47;20027;-66
2021/12/13 11:56:48;;;;;;;5.00;4.50;;;;;;;8.94;70.75;100067.91;2617957;47;20038;-66
2021/12/13 11:59:41;;;;;;;5.28;4.75;;;;;;;8.90;71.20;100063.91;2617632;47;20066;-67
2021/12/13 12:02:27;;;;;;;4.10;3.70;;;;;;;8.91;71.50;100062.91;2618038;39;20424;-66
2021/12/13 12:05:36;;;;;;;4.63;4.22;;;;;;;9.04;71.27;100068.63;2617576;47;20042;-66
2021/12/13 12:08:38;;;;;;;4.90;4.40;;;;;;;9.09;70.59;100068.19;2618041;54;20534;-67
2021/12/13 12:11:28;;;;;;;5.13;4.10;;;;;;;8.98;71.33;100063.97;2618148;54;20061;-65
2021/12/13 12:14:06;;;;;;;4.40;3.92;;;;;;;9.00;71.55;100050.63;2617503;54;20022;-66
2021/12/13 12:16:40;;;;;;;4.82;4.32;;;;;;;9.08;71.45;100053.34;2618419;54;20061;-67
2021/12/13 12:19:15;;;;;;;4.90;4.43;;;;;;;9.16;71.51;100046.31;2618382;54;20030;-68
2021/12/13 12:21:53;;;;;;;5.32;4.40;;;;;;;9.09;70.54;100039.97;2618024;54;20035;-68
2021/12/13 12:24:25;;;;;;;6.68;5.30;;;;;;;9.07;70.66;100043.78;2617587;54;20033;-67
2021/12/13 12:27:01;;;;;;;6.28;5.20;;;;;;;8.99;70.72;100049.81;2618090;54;20057;-65
2021/12/13 12:29:34;;;;;;;8.35;4.88;;;;;;;9.00;70.94;100051.44;2618001;54;20030;-66